Main page
METAR-TAF:

METAR-TAF

Airports :

Erfurt–Weimar Airport

Erfurt, Germany

latitude: 50-59N, longitude: 010-58E, elevation: 315 m

Current weather observation

The report was made 1 hour and 14 minutes ago, at 23:50 UTC
Wind 2 kt from the North
Temperature 17°C
Humidity 68%
Pressure 1019 hPa
Visibility 10 km or more
no clouds below 1500 m and no cumulonimbus

METAR: EDDE 242350Z AUTO 01002KT CAVOK 17/11 Q1019

Time: 03:04 (01:04 UTC)

Forecast

The report was made 2 hours and 4 minutes ago, at 23:00 UTC
Forecast valid from 25 at 00 UTC to 25 at 24 UTC
Wind 3 kt from variable directions
Visibility 10 km or more
no clouds below 1500 m and no cumulonimbus
Becoming
from 25 at 06 UTC to 25 at 09 UTC
Wind 9 kt from the East/Northeast
Becoming
from 25 at 17 UTC to 25 at 20 UTC
Wind 4 kt from the East/Northeast

TAF: EDDE 242300Z 2500/2524 VRB03KT CAVOK BECMG 2506/2509 07009KT BECMG 2517/2520 06004KT

Weather observations and forecasts of more than 4000 airports (METAR and TAF reports).

The available stations are represented by yellow and red dots on the map.

Hover mouse over dot to see the name of the station.

Then click to see weather observations and forecasts.

To change the map : click on the green buttons with a black cross to zoom in, on the green button with a dash to zoom out, or on the green arrows for adjacent maps.


METAR-TAF: